createdAt,value
2022-12-06T00:00:46.396Z,50.50
2022-12-06T00:01:47.030Z,49.10
2022-12-06T00:02:46.492Z,46.40
2022-12-06T00:03:46.472Z,46.60
2022-12-06T00:04:46.640Z,53.40
2022-12-06T00:05:46.467Z,43.30
2022-12-06T00:06:46.932Z,40.10
2022-12-06T00:07:46.719Z,42.10
2022-12-06T00:08:46.246Z,52.90
2022-12-06T00:09:46.751Z,52.20
2022-12-06T00:10:46.589Z,47.70
2022-12-06T00:11:47.478Z,46.30
2022-12-06T00:12:47.851Z,47.00
2022-12-06T00:13:46.379Z,50.40
2022-12-06T00:14:46.195Z,48.60
2022-12-06T00:15:46.302Z,44.30
2022-12-06T00:16:46.608Z,53.30
2022-12-06T00:17:46.316Z,52.60
2022-12-06T00:18:46.104Z,52.00
2022-12-06T00:19:46.190Z,52.50
2022-12-06T00:20:46.091Z,48.30
2022-12-06T00:21:46.199Z,52.00
2022-12-06T00:22:46.037Z,49.80
2022-12-06T00:23:46.353Z,45.80
2022-12-06T00:24:47.024Z,55.00
2022-12-06T00:25:46.993Z,49.60
2022-12-06T00:26:47.340Z,51.30
2022-12-06T00:27:48.260Z,47.30
2022-12-06T00:28:46.082Z,51.20
2022-12-06T00:29:46.129Z,47.30
2022-12-06T00:30:46.178Z,48.40
2022-12-06T00:31:46.971Z,51.10
2022-12-06T00:32:45.907Z,47.40
2022-12-06T00:33:49.561Z,51.50
2022-12-06T00:34:47.137Z,47.80
2022-12-06T00:35:46.111Z,49.70
2022-12-06T00:36:48.759Z,45.30
2022-12-06T00:37:48.976Z,51.40
2022-12-06T00:38:48.515Z,49.70
2022-12-06T00:39:47.699Z,47.90
2022-12-06T00:40:46.986Z,50.40
2022-12-06T00:41:46.264Z,50.60
2022-12-06T00:42:45.685Z,52.80
2022-12-06T00:43:45.817Z,47.30
2022-12-06T00:44:45.668Z,45.00
2022-12-06T00:45:46.700Z,50.40
2022-12-06T00:46:46.692Z,48.30
2022-12-06T00:47:45.722Z,43.80
2022-12-06T00:48:48.227Z,36.80
2022-12-06T00:49:45.759Z,41.30
2022-12-06T00:50:45.709Z,40.20
2022-12-06T00:51:45.825Z,38.00
2022-12-06T00:52:45.542Z,39.00
2022-12-06T00:53:45.724Z,46.50
2022-12-06T00:54:47.384Z,51.20
2022-12-06T00:55:45.557Z,49.70
2022-12-06T00:56:45.601Z,45.80
2022-12-06T00:57:46.275Z,51.10
2022-12-06T00:58:45.565Z,48.50
2022-12-06T00:59:45.795Z,54.70
2022-12-06T01:00:45.793Z,51.60
2022-12-06T01:01:46.274Z,53.00
2022-12-06T01:02:45.880Z,46.20
2022-12-06T01:03:45.446Z,42.60
2022-12-06T01:04:46.829Z,42.20
2022-12-06T01:05:45.825Z,45.70
2022-12-06T01:06:45.317Z,42.50
2022-12-06T01:07:45.279Z,44.40
2022-12-06T01:08:45.324Z,45.50
2022-12-06T01:09:45.442Z,48.10
2022-12-06T01:10:45.261Z,43.70
2022-12-06T01:11:45.837Z,41.50
2022-12-06T01:12:45.557Z,41.80
2022-12-06T01:13:45.167Z,44.30
2022-12-06T01:14:45.298Z,48.10
2022-12-06T01:15:45.995Z,42.10
2022-12-06T01:16:45.327Z,42.60
2022-12-06T01:17:45.610Z,40.40
2022-12-06T01:18:45.203Z,47.30
2022-12-06T01:19:45.107Z,49.90
2022-12-06T01:20:45.510Z,43.90
2022-12-06T01:21:45.300Z,42.90
2022-12-06T01:22:45.082Z,42.20
2022-12-06T01:23:45.028Z,46.20
2022-12-06T01:24:45.102Z,44.90
2022-12-06T01:25:45.042Z,48.30
2022-12-06T01:26:44.939Z,42.90
2022-12-06T01:27:45.058Z,48.50
2022-12-06T01:28:44.973Z,45.70
2022-12-06T01:29:45.085Z,43.60
2022-12-06T01:30:45.150Z,48.70
2022-12-06T01:31:44.964Z,43.20
2022-12-06T01:32:45.241Z,43.20
2022-12-06T01:33:44.980Z,46.90
2022-12-06T01:34:44.918Z,50.40
2022-12-06T01:35:45.046Z,48.20
2022-12-06T01:36:44.942Z,50.00
2022-12-06T01:37:44.921Z,46.60
2022-12-06T01:38:44.947Z,46.40
2022-12-06T01:39:44.927Z,46.90
2022-12-06T01:40:44.852Z,50.80
2022-12-06T01:41:44.834Z,49.10
2022-12-06T01:42:44.828Z,42.50
2022-12-06T01:44:17.136Z,41.50
2022-12-06T01:44:45.790Z,40.60
2022-12-06T01:45:45.500Z,42.30
2022-12-06T01:46:44.698Z,46.00
2022-12-06T01:47:44.898Z,45.30
2022-12-06T01:48:44.704Z,45.30
2022-12-06T01:49:44.792Z,43.90
2022-12-06T01:50:45.054Z,46.70
2022-12-06T01:51:45.622Z,47.40
2022-12-06T01:52:44.612Z,44.70
2022-12-06T01:53:44.741Z,44.60
2022-12-06T01:54:44.728Z,44.00
2022-12-06T01:55:44.646Z,47.40
2022-12-06T01:56:45.056Z,42.90
2022-12-06T01:57:44.756Z,54.00
2022-12-06T01:58:44.578Z,51.70
2022-12-06T01:59:44.571Z,43.50
2022-12-06T02:00:44.555Z,45.90
2022-12-06T02:01:44.690Z,45.70
2022-12-06T02:02:44.877Z,44.80
2022-12-06T02:03:44.477Z,46.10
2022-12-06T02:04:44.610Z,50.70
2022-12-06T02:05:44.494Z,44.20
2022-12-06T02:06:44.711Z,44.30
2022-12-06T02:07:45.908Z,41.30
2022-12-06T02:08:44.500Z,42.60
2022-12-06T02:09:44.773Z,43.40
2022-12-06T02:10:44.438Z,42.20
2022-12-06T02:11:46.713Z,48.00
2022-12-06T02:12:45.498Z,40.60
2022-12-06T02:13:46.817Z,46.30
2022-12-06T02:14:45.216Z,44.90
2022-12-06T02:15:44.908Z,48.30
2022-12-06T02:16:44.691Z,45.00
2022-12-06T02:17:44.386Z,43.70
2022-12-06T02:18:44.472Z,44.70
2022-12-06T02:19:44.458Z,39.30
2022-12-06T02:20:45.211Z,39.60
2022-12-06T02:21:44.580Z,40.90
2022-12-06T02:22:44.225Z,49.10
2022-12-06T02:23:44.217Z,48.60
2022-12-06T02:24:44.337Z,51.00
2022-12-06T02:25:44.351Z,47.20
2022-12-06T02:26:44.143Z,52.70
2022-12-06T02:27:44.250Z,43.00
2022-12-06T02:28:45.236Z,45.70
2022-12-06T02:29:44.580Z,47.70
2022-12-06T02:30:44.790Z,43.80
2022-12-06T02:31:44.160Z,45.30
2022-12-06T02:32:44.182Z,46.80
2022-12-06T02:33:44.015Z,46.60
2022-12-06T02:34:44.102Z,45.90
2022-12-06T02:35:44.140Z,46.90
2022-12-06T02:36:44.022Z,46.80
2022-12-06T02:37:44.021Z,46.30
2022-12-06T02:38:44.041Z,46.60
2022-12-06T02:39:44.050Z,52.00
2022-12-06T02:40:44.146Z,42.90
2022-12-06T02:41:44.028Z,45.90
2022-12-06T02:42:44.079Z,48.80
2022-12-06T02:43:43.939Z,43.60
2022-12-06T02:44:43.937Z,47.80
2022-12-06T02:45:44.400Z,47.00
2022-12-06T02:46:44.212Z,47.30
2022-12-06T02:47:43.902Z,46.50
2022-12-06T02:48:44.480Z,52.70
2022-12-06T02:49:44.738Z,50.10
2022-12-06T02:50:44.093Z,47.70
2022-12-06T02:51:44.008Z,41.40
2022-12-06T02:52:43.893Z,46.10
2022-12-06T02:53:43.816Z,47.90
2022-12-06T02:54:44.269Z,50.50
2022-12-06T02:55:44.132Z,47.60
2022-12-06T02:56:44.063Z,42.00
2022-12-06T02:57:43.934Z,51.10
2022-12-06T02:58:43.865Z,44.00
2022-12-06T02:59:43.862Z,46.40
2022-12-06T03:00:43.875Z,54.30
2022-12-06T03:01:43.831Z,49.20
2022-12-06T03:02:43.708Z,55.00
2022-12-06T03:03:43.693Z,51.00
2022-12-06T03:04:43.788Z,57.20
2022-12-06T03:05:43.714Z,50.60
2022-12-06T03:06:43.726Z,56.40
2022-12-06T03:07:43.798Z,57.00
2022-12-06T03:08:43.716Z,51.80
2022-12-06T03:09:43.732Z,58.20
2022-12-06T03:10:43.748Z,58.40
2022-12-06T03:11:43.651Z,48.20
2022-12-06T03:12:43.635Z,57.20
2022-12-06T03:13:43.658Z,49.10
2022-12-06T03:14:43.570Z,53.50
2022-12-06T03:15:43.712Z,53.90
2022-12-06T03:16:43.676Z,61.50
2022-12-06T03:17:43.672Z,62.00
2022-12-06T03:18:43.584Z,57.40
2022-12-06T03:19:43.513Z,53.80
2022-12-06T03:20:43.508Z,52.20
2022-12-06T03:21:43.645Z,61.20
2022-12-06T03:22:43.520Z,62.80
2022-12-06T03:23:43.539Z,55.70
2022-12-06T03:24:43.814Z,65.10
2022-12-06T03:25:43.446Z,63.40
2022-12-06T03:26:43.516Z,53.00
2022-12-06T03:27:43.633Z,55.90
2022-12-06T03:28:43.425Z,62.50
2022-12-06T03:29:43.672Z,66.40
2022-12-06T03:30:44.213Z,56.30
2022-12-06T03:31:43.371Z,58.00
2022-12-06T03:32:43.301Z,56.10
2022-12-06T03:33:43.385Z,56.00
2022-12-06T03:34:43.305Z,65.70
2022-12-06T03:35:43.285Z,56.80
2022-12-06T03:36:43.320Z,51.10
2022-12-06T03:37:44.175Z,53.70
2022-12-06T03:38:43.212Z,61.70
2022-12-06T03:39:43.424Z,57.30
2022-12-06T03:40:43.231Z,60.10
2022-12-06T03:41:43.252Z,49.20
2022-12-06T03:42:43.350Z,54.00
2022-12-06T03:43:43.157Z,51.10
2022-12-06T03:44:43.298Z,54.50
2022-12-06T03:45:43.245Z,52.10
2022-12-06T03:46:43.246Z,60.30
2022-12-06T03:47:44.207Z,51.50
2022-12-06T03:48:43.165Z,58.50
2022-12-06T03:49:43.931Z,61.10
2022-12-06T03:50:43.282Z,57.40
2022-12-06T03:51:43.397Z,58.60
2022-12-06T03:52:43.282Z,61.40
2022-12-06T03:53:43.143Z,63.40
2022-12-06T03:54:43.122Z,59.00
2022-12-06T03:55:43.144Z,60.20
2022-12-06T03:56:43.243Z,61.80
2022-12-06T03:57:43.358Z,53.30
2022-12-06T03:58:43.068Z,57.00
2022-12-06T03:59:44.091Z,59.60
2022-12-06T04:00:42.985Z,61.70
2022-12-06T04:01:43.124Z,44.50
2022-12-06T04:02:43.002Z,53.40
2022-12-06T04:03:43.275Z,49.40
2022-12-06T04:04:43.070Z,42.00
2022-12-06T04:05:43.005Z,45.90
2022-12-06T04:06:43.895Z,50.20
2022-12-06T04:07:43.048Z,48.90
2022-12-06T04:08:42.906Z,52.70
2022-12-06T04:09:42.917Z,57.10
2022-12-06T04:10:42.872Z,54.40
2022-12-06T04:11:43.127Z,49.90
2022-12-06T04:12:43.360Z,64.10
2022-12-06T04:13:42.865Z,49.60
2022-12-06T04:14:43.284Z,60.40
2022-12-06T04:15:42.814Z,56.60
2022-12-06T04:16:42.865Z,48.10
2022-12-06T04:17:42.841Z,56.80
2022-12-06T04:18:42.904Z,55.10
2022-12-06T04:19:42.681Z,55.00
2022-12-06T04:20:42.749Z,55.50
2022-12-06T04:21:42.828Z,59.90
2022-12-06T04:22:42.976Z,55.40
2022-12-06T04:23:42.741Z,58.00
2022-12-06T04:24:42.817Z,55.70
2022-12-06T04:25:42.631Z,54.80
2022-12-06T04:26:42.652Z,56.60
2022-12-06T04:27:42.651Z,52.10
2022-12-06T04:28:43.587Z,50.80
2022-12-06T04:29:42.578Z,50.50
2022-12-06T04:30:43.585Z,55.50
2022-12-06T04:31:43.117Z,58.80
2022-12-06T04:32:42.681Z,62.60
2022-12-06T04:33:42.696Z,62.10
2022-12-06T04:34:42.513Z,55.60
2022-12-06T04:35:42.680Z,48.90
2022-12-06T04:36:43.505Z,63.40
2022-12-06T04:37:43.655Z,51.90
2022-12-06T04:38:42.632Z,48.50
2022-12-06T04:39:42.543Z,46.40
2022-12-06T04:40:42.872Z,44.10
2022-12-06T04:41:42.654Z,42.80
2022-12-06T04:42:42.715Z,47.60
2022-12-06T04:43:42.779Z,65.70
2022-12-06T04:44:43.391Z,49.20
2022-12-06T04:45:43.491Z,52.40
2022-12-06T04:46:42.709Z,51.50
2022-12-06T04:47:42.489Z,56.90
2022-12-06T04:48:42.594Z,49.40
2022-12-06T04:49:42.479Z,46.20
2022-12-06T04:50:42.496Z,60.50
2022-12-06T04:51:42.405Z,59.10
2022-12-06T04:52:42.394Z,56.60
2022-12-06T04:53:42.409Z,48.10
2022-12-06T04:54:42.428Z,56.50
2022-12-06T04:55:42.417Z,57.90
2022-12-06T04:56:42.467Z,50.30
2022-12-06T04:57:42.349Z,54.00
2022-12-06T04:58:43.302Z,49.80
2022-12-06T04:59:42.285Z,49.20
2022-12-06T05:00:42.649Z,54.80
2022-12-06T05:01:42.460Z,55.60
2022-12-06T05:02:42.305Z,56.20
2022-12-06T05:03:44.317Z,46.60
2022-12-06T05:04:42.285Z,44.00
2022-12-06T05:07:19.485Z,46.70
2022-12-06T05:08:17.838Z,45.60
2022-12-06T05:09:15.890Z,51.60
2022-12-06T05:10:15.934Z,47.80
2022-12-06T05:11:15.916Z,41.80
2022-12-06T05:12:16.049Z,40.60
2022-12-06T05:13:15.866Z,41.20
2022-12-06T05:14:16.248Z,36.60
2022-12-06T05:15:16.253Z,42.20
2022-12-06T05:16:16.920Z,49.50
2022-12-06T05:17:15.882Z,40.90
2022-12-06T05:18:15.768Z,55.40
2022-12-06T05:19:15.857Z,39.20
2022-12-06T05:20:15.893Z,42.80
2022-12-06T05:21:15.784Z,50.90
2022-12-06T05:22:15.812Z,40.00
2022-12-06T05:23:15.618Z,33.80
2022-12-06T05:24:16.442Z,43.90
2022-12-06T05:25:17.411Z,42.20
2022-12-06T05:26:15.723Z,35.10
2022-12-06T05:27:15.834Z,35.70
2022-12-06T05:28:15.624Z,40.10
2022-12-06T05:29:15.737Z,32.30
2022-12-06T05:30:15.870Z,36.00
2022-12-06T05:32:52.523Z,32.00
2022-12-06T05:33:47.719Z,29.60
2022-12-06T05:34:46.891Z,29.20
2022-12-06T05:35:46.835Z,29.40
2022-12-06T05:36:47.638Z,30.20
2022-12-06T05:37:46.763Z,27.70
2022-12-06T05:38:51.147Z,25.70
2022-12-06T05:39:47.834Z,30.60
2022-12-06T05:40:46.748Z,23.50
2022-12-06T05:41:46.851Z,25.80
2022-12-06T05:42:46.757Z,31.60
2022-12-06T05:43:47.500Z,29.30
2022-12-06T05:44:46.760Z,25.40
2022-12-06T05:45:47.787Z,26.50
2022-12-06T05:46:48.028Z,23.90
2022-12-06T05:47:46.844Z,30.40
2022-12-06T05:48:46.616Z,21.80
2022-12-06T05:49:46.620Z,26.50
2022-12-06T05:50:49.987Z,22.80
2022-12-06T05:51:47.559Z,27.50
2022-12-06T05:52:49.604Z,20.50
2022-12-06T05:53:46.519Z,20.00
2022-12-06T05:54:47.359Z,20.60
2022-12-06T05:55:47.024Z,19.40
2022-12-06T05:56:46.440Z,22.90
2022-12-06T05:57:47.447Z,15.70
2022-12-06T05:58:46.757Z,28.40
2022-12-06T05:59:46.700Z,18.80
2022-12-06T06:00:47.496Z,17.10
2022-12-06T06:01:46.486Z,19.20
2022-12-06T06:02:46.765Z,17.30
2022-12-06T06:03:47.984Z,17.50
2022-12-06T06:04:46.290Z,21.80
2022-12-06T06:05:48.133Z,18.90
2022-12-06T06:06:46.362Z,16.20
2022-12-06T06:07:46.464Z,21.40
2022-12-06T06:08:46.549Z,18.80
2022-12-06T06:09:46.323Z,15.70
2022-12-06T06:10:46.349Z,15.10
2022-12-06T06:11:47.299Z,19.10
2022-12-06T06:12:46.396Z,18.00
2022-12-06T06:13:46.716Z,15.70
2022-12-06T06:14:47.288Z,15.80
2022-12-06T06:15:46.398Z,14.40
2022-12-06T06:16:46.493Z,20.00
2022-12-06T06:17:46.377Z,16.10
2022-12-06T06:18:46.293Z,16.70
2022-12-06T06:19:51.285Z,14.50
2022-12-06T06:20:46.190Z,13.30
2022-12-06T06:21:46.277Z,16.20
2022-12-06T06:22:46.303Z,13.60
2022-12-06T06:23:46.126Z,15.40
2022-12-06T06:24:46.165Z,15.20
2022-12-06T06:25:46.465Z,14.20
2022-12-06T06:26:46.259Z,16.50
2022-12-06T06:27:46.047Z,16.20
2022-12-06T06:28:46.114Z,23.80
2022-12-06T06:29:46.641Z,19.50
2022-12-06T06:30:47.210Z,25.50
2022-12-06T06:31:46.320Z,20.30
2022-12-06T06:32:46.121Z,15.60
2022-12-06T06:33:46.423Z,12.60
2022-12-06T06:34:46.528Z,16.00
2022-12-06T06:35:45.975Z,15.40
2022-12-06T06:36:47.029Z,19.10
2022-12-06T06:37:46.641Z,14.30
2022-12-06T06:38:45.967Z,16.30
2022-12-06T06:39:46.149Z,17.00
2022-12-06T06:40:46.812Z,14.00
2022-12-06T06:41:45.964Z,21.20
2022-12-06T06:42:45.862Z,23.10
2022-12-06T06:43:47.927Z,18.90
2022-12-06T06:44:46.181Z,18.70
2022-12-06T06:45:45.962Z,14.30
2022-12-06T06:46:46.776Z,21.10
2022-12-06T06:47:46.535Z,17.80
2022-12-06T06:48:46.423Z,17.20
2022-12-06T06:49:46.224Z,15.80
2022-12-06T06:50:45.924Z,23.40
2022-12-06T06:51:46.536Z,19.00
2022-12-06T06:52:45.950Z,14.50
2022-12-06T06:53:45.635Z,22.40
2022-12-06T06:54:45.739Z,19.10
2022-12-06T06:55:45.855Z,25.00
2022-12-06T06:56:45.727Z,18.20
2022-12-06T06:57:45.954Z,17.90
2022-12-06T06:58:45.895Z,14.90
2022-12-06T06:59:46.002Z,17.80
2022-12-06T07:00:45.699Z,19.50
2022-12-06T07:01:46.790Z,16.00
2022-12-06T07:02:45.803Z,12.90
2022-12-06T07:03:45.703Z,13.30
2022-12-06T07:04:45.788Z,19.50
2022-12-06T07:05:45.547Z,16.60
2022-12-06T07:06:45.505Z,11.80
2022-12-06T07:07:46.993Z,17.50
2022-12-06T07:08:46.045Z,16.00
2022-12-06T07:09:45.529Z,17.30
2022-12-06T07:10:45.872Z,19.10
2022-12-06T07:11:45.357Z,15.50
2022-12-06T07:12:45.471Z,13.50
2022-12-06T07:13:49.680Z,14.50
2022-12-06T07:14:46.493Z,18.80
2022-12-06T07:15:46.189Z,15.00
2022-12-06T07:16:45.533Z,17.70
2022-12-06T07:17:45.384Z,14.40
2022-12-06T07:18:45.312Z,14.90
2022-12-06T07:19:45.408Z,17.20
2022-12-06T07:20:45.524Z,13.50
2022-12-06T07:21:45.321Z,16.30
2022-12-06T07:22:45.336Z,20.30
2022-12-06T07:23:46.074Z,15.90
2022-12-06T07:24:50.711Z,18.40
2022-12-06T07:25:46.392Z,14.90
2022-12-06T07:26:45.247Z,14.00
2022-12-06T07:27:45.363Z,21.60
2022-12-06T07:28:46.184Z,17.20
2022-12-06T07:29:45.279Z,19.10
2022-12-06T07:30:45.419Z,15.80
2022-12-06T07:31:45.367Z,14.80
2022-12-06T07:32:45.274Z,16.10
2022-12-06T07:33:45.300Z,16.40
2022-12-06T07:34:45.425Z,17.40
2022-12-06T07:36:11.398Z,15.80
2022-12-06T07:36:46.043Z,11.40
2022-12-06T07:37:45.343Z,14.00
2022-12-06T07:38:45.546Z,14.10
2022-12-06T07:39:45.136Z,12.80
2022-12-06T07:41:46.902Z,13.20
2022-12-06T07:42:45.163Z,11.20
2022-12-06T07:43:45.471Z,11.20
2022-12-06T07:44:45.994Z,13.50
2022-12-06T07:45:45.213Z,9.50
2022-12-06T07:46:45.400Z,11.70
2022-12-06T07:47:45.273Z,14.50
2022-12-06T07:48:46.136Z,14.10
2022-12-06T07:49:46.014Z,15.60
2022-12-06T07:50:45.011Z,11.80
2022-12-06T07:51:45.039Z,11.60
2022-12-06T07:52:44.936Z,14.40
2022-12-06T07:53:44.937Z,12.00
2022-12-06T07:54:44.826Z,13.90
2022-12-06T07:55:44.742Z,15.40
2022-12-06T07:56:44.869Z,11.80
2022-12-06T07:57:44.933Z,9.10
2022-12-06T07:58:44.774Z,10.80
2022-12-06T07:59:44.872Z,12.60
2022-12-06T08:00:44.674Z,9.20
2022-12-06T08:01:44.974Z,11.10
2022-12-06T08:02:45.701Z,9.20
2022-12-06T08:03:44.725Z,17.00
2022-12-06T08:04:44.889Z,12.60
2022-12-06T08:05:44.798Z,15.30
2022-12-06T08:06:44.802Z,16.20
2022-12-06T08:07:44.674Z,13.00
2022-12-06T08:08:44.838Z,16.80
2022-12-06T08:09:44.890Z,13.00
2022-12-06T08:10:45.567Z,12.80
2022-12-06T08:11:44.668Z,9.00
2022-12-06T08:12:45.687Z,13.50
2022-12-06T08:13:44.560Z,8.90
2022-12-06T08:14:44.789Z,8.80
2022-12-06T08:15:44.641Z,13.40
2022-12-06T08:16:45.020Z,9.60
2022-12-06T08:17:44.504Z,8.30
2022-12-06T08:18:44.506Z,11.70
2022-12-06T08:19:44.883Z,12.00
2022-12-06T08:20:45.307Z,11.00
2022-12-06T08:21:44.864Z,11.70
2022-12-06T08:22:44.615Z,11.60
2022-12-06T08:23:44.627Z,9.70
2022-12-06T08:24:48.339Z,16.80
2022-12-06T08:25:44.456Z,13.20
2022-12-06T08:26:44.540Z,9.20
2022-12-06T08:27:44.459Z,10.30
2022-12-06T08:28:45.573Z,10.40
2022-12-06T08:29:44.661Z,12.80
2022-12-06T08:30:45.304Z,11.10
2022-12-06T08:31:44.815Z,12.00
2022-12-06T08:32:44.527Z,9.20
2022-12-06T08:33:44.371Z,15.40
2022-12-06T08:34:45.191Z,12.70
2022-12-06T08:35:44.333Z,16.40
2022-12-06T08:36:45.035Z,15.90
2022-12-06T08:37:46.021Z,16.90
2022-12-06T08:38:44.456Z,10.50
2022-12-06T08:39:44.141Z,12.80
2022-12-06T08:40:48.253Z,12.70
2022-12-06T08:41:46.966Z,10.60
2022-12-06T08:42:45.261Z,9.80
2022-12-06T08:43:45.191Z,10.70
2022-12-06T08:44:45.191Z,15.60
2022-12-06T08:45:45.165Z,8.90
2022-12-06T08:46:44.448Z,11.60
2022-12-06T08:47:44.752Z,10.80
2022-12-06T08:48:44.188Z,8.10
2022-12-06T08:49:44.810Z,12.70
2022-12-06T08:50:44.528Z,14.00
2022-12-06T08:53:24.647Z,14.40
2022-12-06T08:54:24.091Z,14.70
2022-12-06T08:55:24.266Z,18.30
2022-12-06T08:56:26.555Z,14.00
2022-12-06T08:57:24.507Z,14.40
2022-12-06T08:58:23.880Z,10.50
2022-12-06T08:59:24.228Z,16.30
2022-12-06T09:00:24.763Z,14.00
2022-12-06T09:01:34.099Z,18.60
2022-12-06T09:02:24.750Z,16.80
2022-12-06T09:03:23.819Z,18.50
2022-12-06T09:04:24.192Z,14.30
2022-12-06T09:05:27.823Z,13.60
2022-12-06T09:06:25.868Z,11.60
2022-12-06T09:07:25.696Z,12.30
2022-12-06T09:08:23.815Z,11.50
2022-12-06T09:09:26.952Z,13.00
2022-12-06T09:10:24.842Z,12.20
2022-12-06T09:11:26.817Z,11.70
2022-12-06T09:12:23.493Z,11.30
2022-12-06T09:13:23.785Z,14.30
2022-12-06T09:14:23.602Z,14.80
2022-12-06T09:15:24.504Z,12.80
2022-12-06T09:16:24.723Z,11.30
2022-12-06T09:17:23.502Z,12.60
2022-12-06T09:18:24.810Z,17.00
2022-12-06T09:19:23.541Z,10.40
2022-12-06T09:20:25.486Z,9.80
2022-12-06T09:21:25.047Z,8.60
2022-12-06T09:22:23.346Z,19.00
2022-12-06T09:23:23.542Z,11.70
2022-12-06T09:24:23.689Z,10.50
2022-12-06T09:25:26.831Z,17.70
2022-12-06T09:26:23.383Z,7.90
2022-12-06T09:27:45.872Z,13.20
2022-12-06T09:28:23.781Z,15.80
2022-12-06T09:29:27.711Z,11.40
2022-12-06T09:30:26.165Z,13.70
2022-12-06T09:31:24.082Z,11.30
2022-12-06T09:32:25.353Z,8.20
2022-12-06T09:33:23.982Z,13.00
2022-12-06T09:34:24.393Z,8.80
2022-12-06T09:35:25.185Z,10.20
2022-12-06T09:36:23.653Z,11.50
2022-12-06T09:37:23.672Z,10.00
2022-12-06T09:38:23.750Z,8.40
2022-12-06T09:39:23.676Z,14.60
2022-12-06T09:40:24.276Z,11.30
2022-12-06T09:41:23.359Z,11.00
2022-12-06T09:42:26.769Z,13.00
2022-12-06T09:43:23.793Z,11.90
2022-12-06T09:44:26.755Z,16.80
2022-12-06T09:45:38.450Z,12.20
2022-12-06T09:46:24.286Z,12.30
2022-12-06T09:47:24.036Z,14.40
2022-12-06T09:48:23.976Z,15.70
2022-12-06T09:49:24.646Z,11.60
2022-12-06T09:50:39.193Z,11.60
2022-12-06T09:51:24.049Z,9.50
2022-12-06T09:52:23.666Z,11.00
2022-12-06T09:53:25.821Z,12.20
2022-12-06T09:54:27.042Z,12.50
2022-12-06T09:55:23.805Z,9.40
2022-12-06T10:00:36.424Z,13.80
2022-12-06T10:00:42.470Z,15.00
2022-12-06T10:01:41.933Z,14.00
2022-12-06T10:02:42.691Z,15.60
2022-12-06T10:03:42.296Z,13.00
2022-12-06T10:04:42.391Z,9.60
2022-12-06T10:05:51.804Z,12.00
2022-12-06T10:06:42.649Z,10.60
2022-12-06T10:07:43.120Z,10.60
2022-12-06T10:08:43.116Z,14.80
2022-12-06T10:09:43.640Z,14.10
2022-12-06T10:10:44.360Z,16.10
2022-12-06T10:11:43.227Z,13.20
2022-12-06T10:12:43.810Z,15.80
2022-12-06T10:13:41.703Z,17.80
2022-12-06T10:14:45.938Z,15.30
2022-12-06T10:15:45.326Z,13.80
2022-12-06T10:16:43.748Z,18.50
2022-12-06T10:17:49.092Z,14.90
2022-12-06T10:18:47.115Z,17.80
2022-12-06T10:19:41.474Z,15.30
2022-12-06T10:20:41.724Z,13.30
2022-12-06T10:21:41.694Z,16.10
2022-12-06T10:22:41.599Z,18.70
2022-12-06T10:23:42.565Z,17.40
2022-12-06T10:24:42.403Z,18.00
2022-12-06T10:25:42.863Z,16.80
2022-12-06T10:26:44.185Z,14.40
2022-12-06T10:27:48.282Z,15.30
2022-12-06T10:28:42.533Z,18.50
2022-12-06T10:29:44.130Z,12.50
2022-12-06T10:30:41.354Z,14.20
2022-12-06T10:31:41.659Z,13.20
2022-12-06T10:33:23.745Z,9.90
2022-12-06T10:33:45.501Z,10.40
2022-12-06T10:35:42.710Z,9.90
2022-12-06T10:36:38.762Z,12.20
2022-12-06T10:36:40.774Z,13.20
2022-12-06T10:37:41.692Z,10.20
2022-12-06T10:38:41.195Z,12.20
2022-12-06T10:39:40.895Z,13.70
2022-12-06T10:40:41.200Z,14.40
2022-12-06T10:41:40.911Z,13.60
2022-12-06T10:42:40.909Z,13.10
2022-12-06T10:43:45.503Z,13.20
2022-12-06T10:44:40.792Z,13.10
2022-12-06T10:45:41.640Z,15.80
2022-12-06T10:46:44.248Z,17.30
2022-12-06T10:47:43.499Z,13.70
2022-12-06T10:48:42.153Z,11.30
2022-12-06T10:49:46.670Z,20.60
2022-12-06T10:50:41.560Z,16.30
2022-12-06T10:51:42.918Z,18.10
2022-12-06T10:52:41.178Z,15.60
2022-12-06T10:53:41.708Z,15.90
2022-12-06T10:54:46.125Z,15.90
2022-12-06T10:55:44.669Z,14.30
2022-12-06T10:56:40.682Z,22.30
2022-12-06T10:57:40.626Z,17.50
2022-12-06T10:58:41.318Z,20.60
2022-12-06T10:59:40.631Z,20.10
2022-12-06T11:00:40.671Z,30.00
2022-12-06T11:02:52.334Z,16.10
2022-12-06T11:03:53.556Z,16.50
2022-12-06T11:04:52.525Z,24.40
2022-12-06T11:05:53.762Z,21.90
2022-12-06T11:06:55.110Z,19.80
2022-12-06T11:07:52.484Z,23.00
2022-12-06T11:08:53.359Z,23.50
2022-12-06T11:09:52.273Z,15.60
2022-12-06T11:10:52.899Z,18.50
2022-12-06T11:11:52.899Z,17.50
2022-12-06T11:12:52.260Z,20.90
2022-12-06T11:13:53.817Z,17.00
2022-12-06T11:14:52.096Z,15.60
2022-12-06T11:15:52.031Z,19.50
2022-12-06T11:16:52.027Z,17.30
2022-12-06T11:17:51.917Z,22.10
2022-12-06T11:18:53.542Z,22.90
2022-12-06T11:19:53.152Z,15.90
2022-12-06T11:20:52.442Z,14.80
2022-12-06T11:21:54.691Z,24.90
2022-12-06T11:22:51.921Z,19.60
2022-12-06T11:23:51.951Z,21.10
2022-12-06T11:24:52.157Z,16.70
2022-12-06T11:25:52.595Z,16.40
2022-12-06T11:26:52.473Z,17.30
2022-12-06T11:27:51.877Z,16.40
2022-12-06T11:28:51.778Z,16.40
2022-12-06T11:29:53.413Z,16.00
2022-12-06T11:30:51.607Z,17.20
2022-12-06T11:31:51.657Z,20.60
2022-12-06T11:32:51.807Z,17.30
2022-12-06T11:33:51.592Z,17.50
2022-12-06T11:34:52.535Z,19.40
2022-12-06T11:35:51.856Z,20.40
2022-12-06T11:36:56.662Z,17.10
2022-12-06T11:37:53.090Z,25.20
2022-12-06T11:38:52.087Z,22.90
2022-12-06T11:39:51.703Z,16.50
2022-12-06T11:40:52.293Z,15.90
2022-12-06T11:41:51.970Z,19.00
2022-12-06T11:42:51.592Z,17.00
2022-12-06T11:43:51.574Z,14.80
2022-12-06T11:44:52.192Z,24.50
2022-12-06T11:45:52.118Z,21.40
2022-12-06T11:46:51.508Z,21.20
2022-12-06T11:47:51.583Z,28.20
2022-12-06T11:48:51.503Z,23.00
2022-12-06T11:49:51.407Z,24.00
2022-12-06T11:50:51.330Z,23.40
2022-12-06T11:51:51.330Z,17.80
2022-12-06T11:52:51.357Z,24.00
2022-12-06T11:53:51.326Z,16.80
2022-12-06T11:54:54.224Z,20.40
2022-12-06T11:55:57.219Z,23.20
2022-12-06T11:56:54.460Z,18.70
2022-12-06T11:57:56.167Z,15.30
2022-12-06T11:58:55.045Z,21.70
2022-12-06T11:59:56.016Z,27.70
2022-12-06T12:00:55.149Z,19.90
2022-12-06T12:01:51.665Z,25.50
2022-12-06T12:02:51.697Z,23.70
2022-12-06T12:03:52.154Z,26.10
2022-12-06T12:04:52.730Z,21.40
2022-12-06T12:05:51.407Z,23.60
2022-12-06T12:06:51.361Z,21.80
2022-12-06T12:07:51.302Z,30.90
2022-12-06T12:08:51.560Z,32.20
2022-12-06T12:09:51.063Z,24.80
2022-12-06T12:10:51.175Z,29.70
2022-12-06T12:11:51.206Z,20.70
2022-12-06T12:12:51.076Z,24.50
2022-12-06T12:13:51.683Z,26.20
2022-12-06T12:14:51.817Z,24.20
2022-12-06T12:15:51.696Z,23.90
2022-12-06T12:16:52.778Z,26.00
2022-12-06T12:17:55.616Z,24.30
2022-12-06T12:18:51.951Z,23.20
2022-12-06T12:19:54.912Z,22.00
2022-12-06T12:20:52.253Z,20.20
2022-12-06T12:21:54.410Z,20.90
2022-12-06T12:22:50.912Z,23.50
2022-12-06T12:23:50.966Z,26.40
2022-12-06T12:25:51.884Z,26.10
2022-12-06T12:26:51.844Z,24.90
2022-12-06T12:27:51.906Z,21.70
2022-12-06T12:28:51.702Z,22.10
2022-12-06T12:29:51.507Z,24.00
2022-12-06T12:30:53.123Z,23.80
2022-12-06T12:31:51.306Z,32.40
2022-12-06T12:32:53.587Z,30.30
2022-12-06T12:33:53.649Z,23.10
2022-12-06T12:34:51.122Z,18.90
2022-12-06T12:35:52.036Z,21.20
2022-12-06T12:36:54.329Z,18.80
2022-12-06T12:37:50.644Z,25.80
2022-12-06T12:38:50.933Z,20.80
2022-12-06T12:39:51.078Z,24.30
2022-12-06T12:40:51.466Z,21.60
2022-12-06T12:41:50.747Z,18.20
2022-12-06T12:42:50.795Z,18.10
2022-12-06T12:44:02.378Z,22.40
2022-12-06T12:44:53.884Z,18.60
2022-12-06T12:45:51.655Z,19.60
2022-12-06T12:46:51.745Z,15.60
2022-12-06T12:47:51.346Z,20.00
2022-12-06T12:48:50.733Z,22.70
2022-12-06T12:49:54.827Z,15.50
2022-12-06T12:50:50.955Z,17.50
2022-12-06T12:51:50.844Z,17.30
2022-12-06T12:52:51.476Z,21.70
2022-12-06T12:53:51.981Z,23.40
2022-12-06T12:54:51.800Z,17.10
2022-12-06T12:55:51.398Z,18.10
2022-12-06T12:56:52.143Z,16.90
2022-12-06T12:57:53.446Z,21.20
2022-12-06T12:58:54.677Z,22.90
2022-12-06T12:59:53.180Z,16.70
2022-12-06T13:00:50.672Z,16.00
2022-12-06T13:01:50.578Z,16.90
2022-12-06T13:02:50.565Z,17.20
2022-12-06T13:03:51.729Z,24.50
2022-12-06T13:04:59.812Z,16.10